Time;durP1;ratioP1;P1;durP2;ratioP2;P2;SDS_P1;SDS_P2;PMS_P1;PMS_P2;Temp;Humidity;BMP_temperature;BMP_pressure;BME280_temperature;BME280_humidity;BME280_pressure;Samples;Min_cycle;Max_cycle;Signal;HPM_P1;HPM_P2
2021/04/06 00:00:51;;;;;;;11.83;10.70;;;;;;;2.14;68.33;98830.28;115509;1200;103095;-82
2021/04/06 00:03:21;;;;;;;13.78;12.25;;;;;;;2.15;68.73;98832.03;115540;1199;103187;-82
2021/04/06 00:05:51;;;;;;;13.50;9.38;;;;;;;2.15;68.07;98839.05;115708;1199;103024;-81
2021/04/06 00:08:19;;;;;;;9.40;8.60;;;;;;;2.14;68.27;98845.19;115800;1199;102989;-82
2021/04/06 00:10:52;;;;;;;10.20;9.20;;;;;;;2.13;68.12;98851.33;115547;1199;103011;-84
2021/04/06 00:13:20;;;;;;;8.80;7.85;;;;;;;2.11;69.29;98853.98;115609;1199;103674;-82
2021/04/06 00:15:47;;;;;;;9.73;8.50;;;;;;;2.10;68.80;98865.38;115506;1200;103174;-84
2021/04/06 00:18:16;;;;;;;12.53;9.43;;;;;;;2.10;69.00;98856.64;115609;1199;103102;-83
2021/04/06 00:20:45;;;;;;;13.80;8.90;;;;;;;2.12;69.13;98857.47;115733;1199;103023;-82
2021/04/06 00:23:14;;;;;;;10.28;8.78;;;;;;;2.16;68.25;98859.17;116060;1199;103197;-82
2021/04/06 00:25:43;;;;;;;10.43;8.45;;;;;;;2.15;68.85;98857.44;115678;1200;101275;-83
2021/04/06 00:28:14;;;;;;;11.45;8.55;;;;;;;2.12;68.90;98863.61;115174;1199;103580;-84
2021/04/06 00:30:42;;;;;;;8.63;7.68;;;;;;;2.07;68.89;98864.58;115707;1199;103047;-83
2021/04/06 00:33:40;;;;;;;8.28;7.48;;;;;;;2.08;68.13;98868.92;115722;1199;102992;-84
2021/04/06 00:36:07;;;;;;;8.45;7.50;;;;;;;2.05;68.74;98869.83;115557;1200;103460;-83
2021/04/06 00:38:42;;;;;;;9.57;7.43;;;;;;;2.08;68.39;98868.92;115574;1199;103069;-82
2021/04/06 00:41:13;;;;;;;10.75;8.10;;;;;;;2.10;68.65;98875.03;115648;1198;103201;-82
2021/04/06 00:43:43;;;;;;;10.53;7.40;;;;;;;2.08;67.94;98875.05;115561;1199;103485;-83
2021/04/06 00:46:22;;;;;;;8.63;7.23;;;;;;;2.07;68.54;98867.20;115359;1199;103165;-83
2021/04/06 00:48:52;;;;;;;11.90;7.67;;;;;;;2.04;68.55;98873.38;115300;1199;102880;-84
2021/04/06 00:51:41;;;;;;;11.38;7.50;;;;;;;2.04;68.24;98873.38;115171;1199;103057;-83
2021/04/06 00:54:10;;;;;;;11.80;8.38;;;;;;;1.99;68.41;98890.95;115326;1198;103210;-82
2021/04/06 00:56:39;;;;;;;9.00;7.53;;;;;;;2.00;68.10;98885.67;115475;1199;103030;-82
2021/04/06 00:59:21;;;;;;;11.20;8.27;;;;;;;1.96;67.83;98897.13;115108;1202;103044;-82
2021/04/06 01:01:57;;;;;;;10.37;7.43;;;;;;;1.95;68.35;98899.78;115256;1202;103271;-82
2021/04/06 01:04:28;;;;;;;8.35;7.48;;;;;;;1.97;68.30;98897.98;115366;1199;102399;-83
2021/04/06 01:07:15;;;;;;;9.55;7.88;;;;;;;1.90;68.72;98901.60;115764;1199;103641;-81
2021/04/06 01:09:50;;;;;;;8.58;7.53;;;;;;;1.88;68.35;98903.37;115622;1199;103018;-83
2021/04/06 01:12:19;;;;;;;9.50;7.95;;;;;;;1.84;68.91;98913.07;115614;1200;103024;-83
2021/04/06 01:14:48;;;;;;;10.80;9.70;;;;;;;1.83;68.48;98912.19;115526;1200;103065;-82
2021/04/06 01:17:19;;;;;;;18.40;12.75;;;;;;;1.83;68.64;98920.06;115769;1199;102995;-83
2021/04/06 01:19:46;;;;;;;10.80;8.95;;;;;;;1.83;68.64;98921.83;115683;1199;103113;-82
2021/04/06 01:22:15;;;;;;;13.10;10.20;;;;;;;1.82;68.20;98920.09;115730;1199;103051;-83
2021/04/06 01:24:43;;;;;;;10.67;9.67;;;;;;;1.81;68.89;98926.22;115598;1199;103059;-83
2021/04/06 01:27:19;;;;;;;11.65;10.40;;;;;;;1.80;68.65;98929.73;115698;1199;103176;-82
2021/04/06 01:29:51;;;;;;;11.30;10.08;;;;;;;1.80;68.53;98925.36;115658;1199;102999;-83
2021/04/06 01:32:18;;;;;;;11.03;9.85;;;;;;;1.76;68.50;98928.03;115652;1199;104667;-82
2021/04/06 01:34:45;;;;;;;12.00;9.45;;;;;;;1.79;68.71;98931.50;115528;1199;103190;-82
2021/04/06 01:37:20;;;;;;;10.03;9.03;;;;;;;1.80;68.26;98933.23;115674;1199;101895;-83
2021/04/06 01:39:50;;;;;;;9.23;7.67;;;;;;;1.82;68.50;98936.69;115663;1199;103085;-82
2021/04/06 01:42:21;;;;;;;11.63;7.73;;;;;;;1.86;67.94;98939.30;115544;1199;103006;-83
2021/04/06 01:44:50;;;;;;;9.45;6.50;;;;;;;1.91;67.93;98948.83;115496;1198;103022;-82
2021/04/06 01:47:18;;;;;;;8.50;7.80;;;;;;;1.96;68.35;98957.51;115840;1199;103195;-83
2021/04/06 01:49:45;;;;;;;8.50;6.70;;;;;;;1.87;67.89;98960.27;115667;1199;103172;-83
2021/04/06 01:52:13;;;;;;;8.63;6.23;;;;;;;1.89;68.50;98952.36;115240;1199;103053;-83
2021/04/06 01:54:41;;;;;;;7.33;6.40;;;;;;;1.83;68.53;98948.08;115660;1199;103095;-83
2021/04/06 01:57:18;;;;;;;7.45;6.03;;;;;;;1.81;68.55;98953.36;115713;1199;103107;-83
2021/04/06 01:59:53;;;;;;;8.88;7.63;;;;;;;1.82;68.36;98960.31;115606;1199;103052;-83
2021/04/06 02:02:27;;;;;;;10.35;6.73;;;;;;;1.80;68.37;98969.09;115553;1198;103104;-84
2021/04/06 02:04:58;;;;;;;8.23;7.33;;;;;;;1.88;68.34;98962.02;115863;1199;103001;-82
2021/04/06 02:07:29;;;;;;;9.17;6.63;;;;;;;1.81;67.87;98963.86;115619;1199;101716;-81
2021/04/06 02:09:56;;;;;;;8.87;5.83;;;;;;;1.82;68.08;98968.19;115847;1199;103098;-82
2021/04/06 02:12:23;;;;;;;9.77;7.90;;;;;;;1.84;67.88;98971.67;115614;1198;103092;-83
2021/04/06 02:14:57;;;;;;;6.90;6.30;;;;;;;1.84;67.47;98968.20;115625;1199;103204;-82
2021/04/06 02:17:24;;;;;;;7.03;5.95;;;;;;;1.89;67.73;98973.36;115630;1199;103142;-82
2021/04/06 02:19:50;;;;;;;7.23;6.43;;;;;;;1.83;67.67;98982.20;115740;1199;103302;-83
2021/04/06 02:22:19;;;;;;;9.25;6.38;;;;;;;1.88;67.53;98984.75;115703;1199;103011;-84
2021/04/06 02:24:50;;;;;;;13.23;6.60;;;;;;;1.86;67.46;98990.03;115635;1200;103040;-83
2021/04/06 02:27:24;;;;;;;6.80;5.78;;;;;;;1.82;66.97;98988.33;115569;1199;103207;-82
2021/04/06 02:29:59;;;;;;;7.40;6.00;;;;;;;1.82;67.20;98990.95;115659;1199;103168;-83
2021/04/06 02:32:31;;;;;;;8.77;5.73;;;;;;;1.81;67.11;98986.59;115561;1199;103490;-83
2021/04/06 02:35:00;;;;;;;7.50;5.80;;;;;;;1.86;67.08;98997.90;115613;1199;103099;-84
2021/04/06 02:37:30;;;;;;;9.07;5.23;;;;;;;1.83;67.21;98993.56;115642;1199;103158;-82
2021/04/06 02:39:59;;;;;;;8.03;6.58;;;;;;;1.82;67.12;98996.20;115582;1199;103062;-82
2021/04/06 02:42:33;;;;;;;7.77;6.13;;;;;;;1.82;67.03;98996.20;115623;1198;103140;-84
2021/04/06 02:45:07;;;;;;;8.70;6.55;;;;;;;1.79;66.61;98994.48;115607;1200;103139;-83
2021/04/06 02:47:41;;;;;;;8.18;6.33;;;;;;;1.79;66.85;99004.99;115892;1198;102906;-84
2021/04/06 02:50:19;;;;;;;5.53;5.03;;;;;;;1.80;67.13;99009.36;115944;1199;103114;-83
2021/04/06 02:52:46;;;;;;;6.30;5.80;;;;;;;1.80;66.71;98996.23;115814;1200;103072;-84
2021/04/06 02:55:14;;;;;;;6.25;5.43;;;;;;;1.82;67.21;98997.06;115613;1199;103040;-83
2021/04/06 02:57:47;;;;;;;4.75;4.43;;;;;;;1.83;67.13;99004.05;115857;1200;103011;-82
2021/04/06 03:00:30;;;;;;;7.17;5.47;;;;;;;1.82;67.38;98999.69;115704;1198;103021;-83
2021/04/06 03:03:04;;;;;;;5.27;4.87;;;;;;;1.85;66.36;99004.03;115781;1199;102992;-83
2021/04/06 03:05:45;;;;;;;8.00;6.33;;;;;;;1.80;66.87;99005.84;115449;1199;103060;-82
2021/04/06 03:08:14;;;;;;;7.88;5.28;;;;;;;1.81;67.11;98997.09;115305;1199;103184;-82
2021/04/06 03:10:40;;;;;;;6.20;5.30;;;;;;;1.81;66.43;99002.34;115250;1200;103021;-84
2021/04/06 03:13:12;;;;;;;10.88;5.95;;;;;;;1.81;66.84;99003.23;115204;1199;103456;-82
2021/04/06 03:15:42;;;;;;;5.48;4.88;;;;;;;1.83;67.50;98998.81;115683;1199;101774;-82
2021/04/06 03:18:10;;;;;;;5.73;5.23;;;;;;;1.80;67.34;99005.84;115730;1200;103156;-83
2021/04/06 03:20:38;;;;;;;5.98;5.48;;;;;;;1.80;67.06;98993.61;115552;1199;103069;-83
2021/04/06 03:23:07;;;;;;;6.55;5.95;;;;;;;1.79;67.75;98991.86;115543;1200;103014;-83
2021/04/06 03:25:37;;;;;;;6.70;6.10;;;;;;;1.77;67.86;99001.53;115710;1199;103143;-82
2021/04/06 03:28:09;;;;;;;5.53;5.03;;;;;;;1.76;67.48;98999.80;115582;1199;103020;-83
2021/04/06 03:30:36;;;;;;;6.60;5.30;;;;;;;1.77;68.83;99006.78;115477;1197;103152;-84
2021/04/06 03:33:08;;;;;;;7.45;5.40;;;;;;;1.81;69.39;99005.86;115278;1199;103069;-84
2021/04/06 03:35:37;;;;;;;6.37;5.73;;;;;;;1.76;70.58;99007.66;115100;1198;103197;-83
2021/04/06 03:38:07;;;;;;;8.00;5.50;;;;;;;1.72;70.49;99003.34;115219;1199;102992;-82
2021/04/06 03:40:36;;;;;;;6.60;5.70;;;;;;;1.74;70.65;98998.08;115428;1200;103194;-81
2021/04/06 03:43:18;;;;;;;7.33;5.47;;;;;;;1.73;70.22;98999.81;115444;1199;103088;-82
2021/04/06 03:46:04;;;;;;;8.28;6.40;;;;;;;1.74;70.56;99000.70;115602;1200;103024;-82
2021/04/06 03:48:34;;;;;;;6.80;5.73;;;;;;;1.78;70.37;98997.14;115498;1199;103005;-83
2021/04/06 03:51:02;;;;;;;17.25;5.63;;;;;;;1.83;69.79;99004.05;115620;1198;103197;-84
2021/04/06 03:53:42;;;;;;;9.97;6.30;;;;;;;1.83;69.79;99005.83;115931;1198;102998;-82
2021/04/06 03:56:14;;;;;;;8.77;5.93;;;;;;;1.81;70.17;99007.59;115393;1199;103206;-82
2021/04/06 03:58:45;;;;;;;6.65;5.43;;;;;;;1.79;70.45;99004.13;115458;1200;103201;-83
2021/04/06 04:01:12;;;;;;;7.45;6.25;;;;;;;1.81;69.88;99005.86;115524;1199;103616;-82
2021/04/06 04:03:39;;;;;;;7.67;6.87;;;;;;;1.81;70.19;99002.34;115482;1199;103095;-82
2021/04/06 04:06:07;;;;;;;8.60;6.83;;;;;;;1.74;69.84;99003.33;115536;1199;103095;-82
2021/04/06 04:08:35;;;;;;;7.15;5.73;;;;;;;1.77;70.09;99004.16;115827;1199;103156;-83
2021/04/06 04:11:02;;;;;;;8.40;6.10;;;;;;;1.74;69.35;99006.80;115686;1199;103222;-83
2021/04/06 04:13:28;;;;;;;7.77;5.40;;;;;;;1.73;69.83;99004.20;115586;1199;103114;-82
2021/04/06 04:15:55;;;;;;;6.50;5.55;;;;;;;1.73;68.68;99001.58;115631;1199;103078;-83
2021/04/06 04:18:22;;;;;;;9.50;6.58;;;;;;;1.72;69.31;99008.59;115761;1199;103264;-81
2021/04/06 04:20:48;;;;;;;6.45;5.45;;;;;;;1.76;68.95;98998.91;115696;1198;102919;-83
2021/04/06 04:23:15;;;;;;;8.73;6.70;;;;;;;1.74;69.16;99003.33;115667;1198;103127;-83
2021/04/06 04:25:41;;;;;;;7.10;5.87;;;;;;;1.76;69.27;99010.29;115502;1199;103121;-82
2021/04/06 04:28:08;;;;;;;5.77;5.30;;;;;;;1.76;68.59;99004.16;115702;1199;103083;-79
2021/04/06 04:30:38;;;;;;;6.55;6.00;;;;;;;1.71;69.18;99006.86;115698;1199;103165;-84
2021/04/06 04:33:08;;;;;;;6.85;5.75;;;;;;;1.69;68.98;99008.61;115546;1199;103641;-82
2021/04/06 04:35:36;;;;;;;5.93;5.08;;;;;;;1.69;68.72;99016.48;115884;1199;103047;-82
2021/04/06 04:38:04;;;;;;;9.90;5.40;;;;;;;1.71;68.79;99009.48;115830;1197;103155;-83
2021/04/06 04:40:46;;;;;;;8.95;5.20;;;;;;;1.75;69.06;99010.31;115543;1199;103041;-83
2021/04/06 04:43:13;;;;;;;9.80;6.23;;;;;;;1.80;68.08;99016.34;115549;1199;103342;-84
2021/04/06 04:45:54;;;;;;;10.30;6.27;;;;;;;1.83;68.49;99008.45;115578;1199;103124;-83
2021/04/06 04:48:36;;;;;;;7.93;6.00;;;;;;;1.87;68.57;99004.89;115663;1201;103350;-82
2021/04/06 04:51:02;;;;;;;12.25;7.00;;;;;;;1.94;68.59;99011.78;115251;1202;103213;-83
2021/04/06 04:53:29;;;;;;;8.63;5.57;;;;;;;1.93;68.41;99014.44;115535;1200;103200;-82
2021/04/06 04:55:56;;;;;;;6.50;5.90;;;;;;;1.96;68.41;99011.76;115513;1199;103071;-83
2021/04/06 04:58:23;;;;;;;8.38;5.80;;;;;;;1.93;67.69;99012.70;115595;1198;103030;-83
2021/04/06 05:00:50;;;;;;;6.75;6.05;;;;;;;1.96;67.73;99017.90;115735;1199;103028;-83
2021/04/06 05:03:18;;;;;;;6.08;5.50;;;;;;;1.97;68.08;99013.50;115726;1199;103019;-82
2021/04/06 05:05:45;;;;;;;8.13;5.10;;;;;;;1.98;68.19;99023.13;115450;1199;103098;-81
2021/04/06 05:08:12;;;;;;;9.13;5.90;;;;;;;1.98;68.34;99023.13;115575;1199;102763;-83
2021/04/06 05:10:39;;;;;;;7.43;6.17;;;;;;;1.96;67.62;99012.64;115614;1200;103073;-82
2021/04/06 05:13:06;;;;;;;13.17;6.07;;;;;;;2.04;67.98;99012.55;115499;1200;103081;-82
2021/04/06 05:15:47;;;;;;;14.33;11.03;;;;;;;2.09;68.23;99023.86;115692;1199;103139;-83
2021/04/06 05:18:16;;;;;;;6.73;6.13;;;;;;;2.08;68.14;99027.37;115511;1199;103083;-81
2021/04/06 05:20:43;;;;;;;9.90;6.50;;;;;;;2.15;68.23;99039.51;115543;1200;103129;-81
2021/04/06 05:23:09;;;;;;;6.10;5.50;;;;;;;2.18;67.94;99038.59;115626;1199;103091;-82
2021/04/06 05:25:36;;;;;;;10.95;6.48;;;;;;;2.21;67.36;99043.80;115505;1200;103101;-82
2021/04/06 05:28:06;;;;;;;7.08;5.75;;;;;;;2.25;67.73;99055.99;115509;1200;103085;-83
2021/04/06 05:30:47;;;;;;;9.17;6.43;;;;;;;2.27;67.39;99058.63;115532;1199;103191;-81
2021/04/06 05:33:17;;;;;;;7.58;5.93;;;;;;;2.30;67.15;99063.83;115489;1199;103162;-82
2021/04/06 05:35:44;;;;;;;9.73;7.40;;;;;;;2.29;67.74;99077.84;115560;1199;103114;-84
2021/04/06 05:38:10;;;;;;;7.75;6.38;;;;;;;2.34;67.25;99068.14;115694;1199;103477;-84
2021/04/06 05:40:37;;;;;;;10.00;6.10;;;;;;;2.34;68.00;99082.13;115623;1199;103031;-82
2021/04/06 05:43:04;;;;;;;6.60;6.00;;;;;;;2.35;68.16;99077.77;115647;1199;103088;-85
2021/04/06 05:45:33;;;;;;;8.67;6.50;;;;;;;2.43;68.13;99086.41;115560;1199;103027;-83
2021/04/06 05:48:03;;;;;;;9.43;7.73;;;;;;;2.46;67.69;99081.09;115680;1199;101155;-83
2021/04/06 05:50:29;;;;;;;10.50;6.80;;;;;;;2.45;67.83;99084.64;115736;1199;103280;-84
2021/04/06 05:52:56;;;;;;;8.80;7.15;;;;;;;2.46;67.63;99081.09;115596;1199;102528;-81
2021/04/06 05:55:24;;;;;;;12.00;7.03;;;;;;;2.45;67.39;99084.64;115536;1199;103027;-82
2021/04/06 05:57:54;;;;;;;15.10;9.53;;;;;;;2.51;68.14;99079.27;115433;1198;101521;-83
2021/04/06 06:00:22;;;;;;;7.20;6.63;;;;;;;2.56;67.61;99086.21;115933;1199;103018;-82
2021/04/06 06:02:50;;;;;;;9.80;7.05;;;;;;;2.58;67.20;99102.84;115207;1198;103105;-83
2021/04/06 06:05:17;;;;;;;8.53;7.70;;;;;;;2.52;67.85;99095.92;115448;1199;103851;-82
2021/04/06 06:07:44;;;;;;;9.07;7.27;;;;;;;2.47;67.87;99105.63;115510;1200;103108;-81
2021/04/06 06:10:31;;;;;;;10.30;9.13;;;;;;;2.53;67.66;99118.66;115645;1197;103300;-83
2021/04/06 06:13:18;;;;;;;29.77;18.03;;;;;;;2.60;66.89;99129.95;115530;1199;101953;-81
2021/04/06 06:16:08;;;;;;;11.00;8.03;;;;;;;2.59;67.04;99139.61;115655;1199;102053;-82
2021/04/06 06:18:58;;;;;;;11.00;8.00;;;;;;;2.53;67.07;99131.80;115610;1199;103084;-82
2021/04/06 06:21:46;;;;;;;9.75;8.08;;;;;;;2.48;67.12;99146.79;115574;1198;103114;-83
2021/04/06 06:24:33;;;;;;;11.60;7.05;;;;;;;2.48;67.80;99137.14;115367;1203;103498;-82
2021/04/06 06:27:00;;;;;;;7.00;6.10;;;;;;;2.48;67.65;99139.77;115205;1202;103261;-82
2021/04/06 06:29:42;;;;;;;20.23;10.20;;;;;;;2.56;67.58;99144.92;115228;1199;103047;-83
2021/04/06 06:32:20;;;;;;;8.70;8.00;;;;;;;2.63;67.14;99132.56;115409;1199;103011;-82
2021/04/06 06:34:48;;;;;;;12.15;7.10;;;;;;;2.67;67.28;99127.22;115584;1199;103283;-82
2021/04/06 06:37:30;;;;;;;7.57;6.83;;;;;;;2.61;67.07;99129.06;115516;1199;103271;-82
2021/04/06 06:39:58;;;;;;;8.60;7.80;;;;;;;2.56;66.15;99144.03;115473;1198;102303;-83
2021/04/06 06:42:34;;;;;;;8.23;7.43;;;;;;;2.54;67.07;99148.46;115691;1199;103123;-82
2021/04/06 06:45:26;;;;;;;12.80;7.70;;;;;;;2.58;67.40;99140.49;115513;1198;101906;-83
2021/04/06 06:47:54;;;;;;;10.03;7.07;;;;;;;2.62;66.95;99149.22;115741;1200;102954;-82
2021/04/06 06:50:24;;;;;;;8.30;7.45;;;;;;;2.62;66.65;99147.44;115568;1199;103105;-84
2021/04/06 06:52:55;;;;;;;16.67;8.90;;;;;;;2.71;67.50;99145.59;115544;1199;102989;-83
2021/04/06 06:55:26;;;;;;;8.80;7.65;;;;;;;2.74;67.21;99163.95;115545;1200;103641;-82
2021/04/06 06:58:07;;;;;;;9.93;8.60;;;;;;;2.79;66.88;99160.34;115145;1202;103172;-82
2021/04/06 07:00:34;;;;;;;11.05;7.75;;;;;;;2.80;65.79;99146.32;115451;1202;102339;-82
2021/04/06 07:03:14;;;;;;;10.00;7.43;;;;;;;2.79;66.06;99139.31;115244;1202;103175;-83
2021/04/06 07:05:41;;;;;;;12.20;8.37;;;;;;;2.79;66.63;99141.09;115125;1203;103024;-82
2021/04/06 07:08:09;;;;;;;13.25;10.95;;;;;;;2.84;66.96;99155.89;115314;1202;103153;-82
2021/04/06 07:10:38;;;;;;;20.45;13.25;;;;;;;2.90;66.42;99156.70;115317;1202;103165;-82
2021/04/06 07:13:07;;;;;;;12.08;8.78;;;;;;;2.87;66.15;99160.23;115289;1201;104662;-82
2021/04/06 07:15:44;;;;;;;18.13;14.85;;;;;;;2.90;66.28;99167.22;115787;1202;103197;-81
2021/04/06 07:18:16;;;;;;;26.37;15.27;;;;;;;2.96;65.43;99159.21;114948;1203;103063;-81
2021/04/06 07:20:46;;;;;;;20.80;14.77;;;;;;;2.99;66.44;99165.30;115192;1202;103060;-82
2021/04/06 07:23:23;;;;;;;23.23;17.10;;;;;;;3.04;65.91;99167.88;115500;1203;103047;-81
2021/04/06 07:25:50;;;;;;;13.90;9.07;;;;;;;3.03;65.22;99178.43;115390;1202;103184;-80
2021/04/06 07:28:17;;;;;;;15.15;10.28;;;;;;;3.01;65.31;99191.58;115394;1203;103007;-82
2021/04/06 07:30:45;;;;;;;11.15;10.03;;;;;;;3.00;64.40;99192.49;115412;1202;103326;-82
2021/04/06 07:33:17;;;;;;;12.30;8.30;;;;;;;3.05;65.02;99193.27;115781;1202;103756;-81
2021/04/06 07:35:44;;;;;;;12.18;8.75;;;;;;;3.04;65.12;99188.03;115966;1199;102177;-83
2021/04/06 07:38:11;;;;;;;10.78;7.98;;;;;;;3.13;64.18;99178.26;115643;1199;103070;-83
2021/04/06 07:40:39;;;;;;;14.35;10.50;;;;;;;3.31;64.42;99178.85;115748;1199;101464;-83
2021/04/06 07:43:07;;;;;;;13.93;8.10;;;;;;;3.35;64.16;99176.13;115882;1200;103033;-83
2021/04/06 07:45:37;;;;;;;13.35;8.63;;;;;;;3.45;63.63;99175.97;115551;1199;103529;-85
2021/04/06 07:48:05;;;;;;;9.20;7.60;;;;;;;3.51;63.41;99184.63;115792;1199;103050;-81
2021/04/06 07:50:38;;;;;;;12.65;9.43;;;;;;;3.53;63.07;99183.74;115758;1199;103018;-82
2021/04/06 07:53:28;;;;;;;15.07;7.40;;;;;;;3.56;63.19;99181.94;115736;1199;103101;-81
2021/04/06 07:55:59;;;;;;;12.98;7.70;;;;;;;3.51;62.34;99176.73;115675;1199;103114;-82
2021/04/06 07:58:48;;;;;;;10.43;7.53;;;;;;;3.50;62.18;99182.03;115741;1200;103069;-82
2021/04/06 08:01:29;;;;;;;16.80;10.70;;;;;;;3.41;62.17;99172.55;115738;1203;103044;-83
2021/04/06 08:04:00;;;;;;;27.70;16.25;;;;;;;3.40;62.83;99181.33;115598;1198;103056;-83
2021/04/06 08:06:32;;;;;;;15.45;9.70;;;;;;;3.39;61.68;99176.09;115591;1198;103168;-82
2021/04/06 08:08:59;;;;;;;10.97;8.30;;;;;;;3.33;61.70;99175.30;115444;1199;101559;-81
2021/04/06 08:12:12;;;;;;;10.15;7.20;;;;;;;3.32;61.70;99170.07;115663;1198;102483;-81
2021/04/06 08:14:43;;;;;;;23.10;11.20;;;;;;;3.33;61.18;99170.04;115751;1200;103086;-81
2021/04/06 08:17:54;;;;;;;15.73;9.93;;;;;;;3.31;61.44;99170.95;115763;1199;102998;-81
2021/04/06 08:20:29;;;;;;;16.08;10.70;;;;;;;3.47;61.67;99169.79;115763;1203;103005;-81
2021/04/06 08:23:36;;;;;;;13.80;8.83;;;;;;;3.62;60.56;99170.42;115398;1203;103300;-82
2021/04/06 08:26:03;;;;;;;17.60;10.10;;;;;;;3.79;59.97;99175.39;115580;1202;103284;-84
2021/04/06 08:28:37;;;;;;;10.60;9.30;;;;;;;3.98;60.59;99170.63;115418;1203;103334;-82
2021/04/06 08:31:25;;;;;;;21.50;14.40;;;;;;;4.21;59.35;99170.16;115585;1202;102998;-82
2021/04/06 08:33:53;;;;;;;21.98;10.08;;;;;;;4.32;58.20;99185.79;115497;1202;103089;-83
2021/04/06 08:36:24;;;;;;;10.40;8.30;;;;;;;4.40;56.73;99198.78;115912;1202;102913;-82
2021/04/06 08:38:51;;;;;;;11.07;7.40;;;;;;;4.43;56.20;99202.23;115487;1203;102149;-83
2021/04/06 08:41:32;;;;;;;9.20;7.88;;;;;;;4.56;56.12;99218.67;115589;1202;104814;-82
2021/04/06 08:44:04;;;;;;;24.13;8.10;;;;;;;4.59;55.23;99217.75;115615;1202;103274;-84
2021/04/06 08:46:39;;;;;;;12.80;8.70;;;;;;;4.54;57.22;99215.19;115712;1202;103442;-83
2021/04/06 08:49:22;;;;;;;12.38;7.93;;;;;;;4.43;56.26;99202.23;115528;1202;103602;-84
2021/04/06 08:52:00;;;;;;;13.73;9.10;;;;;;;4.36;57.12;99216.45;115608;1199;103200;-83
2021/04/06 08:54:31;;;;;;;26.73;16.33;;;;;;;4.37;56.66;99215.52;115851;1198;103273;-82
2021/04/06 08:57:12;;;;;;;19.77;14.80;;;;;;;4.36;57.30;99208.55;116022;1199;102627;-82
2021/04/06 08:59:42;;;;;;;25.25;15.78;;;;;;;4.39;58.09;99204.98;115802;1198;101445;-82
2021/04/06 09:02:21;;;;;;;11.33;9.17;;;;;;;4.35;57.46;99209.44;115667;1199;102044;-82
2021/04/06 09:04:50;;;;;;;16.63;8.17;;;;;;;4.28;57.50;99220.98;115396;1199;103542;-81
2021/04/06 09:07:20;;;;;;;11.60;8.60;;;;;;;4.18;56.90;99222.94;115723;1198;102992;-82
2021/04/06 09:09:53;;;;;;;13.70;9.25;;;;;;;4.07;57.31;99209.97;115848;1199;101982;-83
2021/04/06 09:12:36;;;;;;;15.28;10.40;;;;;;;4.07;57.27;99206.48;115294;1200;103861;-83
2021/04/06 09:15:06;;;;;;;17.47;10.87;;;;;;;4.13;57.15;99209.87;115748;1200;103096;-83
2021/04/06 09:17:35;;;;;;;13.25;9.75;;;;;;;4.09;56.83;99207.30;115676;1202;103188;-83
2021/04/06 09:20:14;;;;;;;9.70;8.03;;;;;;;4.04;57.92;99212.67;115480;1202;103056;-81
2021/04/06 09:22:45;;;;;;;15.83;9.80;;;;;;;4.08;57.61;99205.56;115697;1200;103146;-82
2021/04/06 09:25:29;;;;;;;15.27;9.07;;;;;;;4.11;58.45;99205.52;115508;1201;103168;-81
2021/04/06 09:28:07;;;;;;;18.20;10.15;;;;;;;4.26;58.13;99213.11;115678;1200;102605;-83
2021/04/06 09:30:43;;;;;;;12.30;9.40;;;;;;;4.55;58.31;99211.66;115721;1200;103414;-82
2021/04/06 09:33:17;;;;;;;12.55;7.78;;;;;;;4.67;57.16;99211.39;115685;1200;103133;-83
2021/04/06 09:35:49;;;;;;;19.80;9.85;;;;;;;4.77;56.20;99204.17;115395;1202;103121;-81
2021/04/06 09:38:21;;;;;;;9.85;7.63;;;;;;;4.68;55.80;99204.37;115634;1201;102380;-82
2021/04/06 09:40:48;;;;;;;14.93;8.68;;;;;;;4.59;56.58;99207.20;115642;1200;102699;-82
2021/04/06 09:43:29;;;;;;;10.30;7.90;;;;;;;4.43;55.83;99207.51;115693;1200;103274;-81
2021/04/06 09:45:56;;;;;;;10.75;7.60;;;;;;;4.37;55.80;99209.40;115591;1200;103146;-84
2021/04/06 09:48:23;;;;;;;10.35;7.30;;;;;;;4.40;54.98;99209.33;115788;1200;102999;-82
2021/04/06 09:51:05;;;;;;;16.38;9.85;;;;;;;4.41;55.46;99213.70;115541;1200;103191;-83
2021/04/06 09:53:36;;;;;;;13.63;8.43;;;;;;;4.45;55.21;99210.99;115633;1198;103015;-82
2021/04/06 09:56:06;;;;;;;14.55;8.23;;;;;;;4.33;54.98;99217.38;115696;1198;103079;-83
2021/04/06 09:58:35;;;;;;;8.38;6.68;;;;;;;4.35;54.87;99217.34;116085;1199;101413;-82
2021/04/06 10:01:15;;;;;;;15.00;7.60;;;;;;;4.26;55.32;99218.38;115548;1199;102451;-81
2021/04/06 10:03:53;;;;;;;11.17;9.43;;;;;;;4.29;56.35;99220.98;115876;1198;103012;-83
2021/04/06 10:06:20;;;;;;;18.25;9.28;;;;;;;4.32;55.62;99222.69;115653;1199;103089;-83
2021/04/06 10:08:47;;;;;;;16.77;8.23;;;;;;;4.36;56.63;99213.81;115983;1199;103175;-82
2021/04/06 10:11:23;;;;;;;11.30;9.38;;;;;;;4.46;56.73;99210.06;115759;1199;103102;-82
2021/04/06 10:13:50;;;;;;;13.90;8.10;;;;;;;4.47;55.41;99209.17;115616;1198;103082;-82
2021/04/06 10:16:19;;;;;;;8.73;7.70;;;;;;;4.47;55.37;99206.54;115671;1199;103190;-82
2021/04/06 10:18:48;;;;;;;9.05;7.30;;;;;;;4.49;55.81;99198.59;115804;1199;102520;-81
2021/04/06 10:21:24;;;;;;;14.50;7.80;;;;;;;4.69;55.79;99200.80;115624;1199;103027;-81
2021/04/06 10:24:06;;;;;;;12.97;7.63;;;;;;;4.96;53.87;99199.34;115728;1199;103002;-82
2021/04/06 10:26:34;;;;;;;7.90;6.95;;;;;;;4.91;52.46;99193.30;115640;1199;102830;-83
2021/04/06 10:29:10;;;;;;;9.30;7.15;;;;;;;4.78;53.34;99194.47;116006;1199;103044;-84
2021/04/06 10:31:52;;;;;;;11.60;7.08;;;;;;;4.66;54.43;99191.19;115758;1199;103208;-83
2021/04/06 10:34:19;;;;;;;8.98;6.58;;;;;;;4.59;54.58;99202.78;115809;1199;103238;-82
2021/04/06 10:36:58;;;;;;;8.03;6.73;;;;;;;4.59;54.16;99205.42;115898;1199;103294;-83
2021/04/06 10:39:32;;;;;;;10.93;6.80;;;;;;;4.54;53.50;99195.88;115832;1199;103043;-82
2021/04/06 10:42:03;;;;;;;8.13;6.55;;;;;;;4.47;53.45;99200.41;115768;1199;103136;-83
2021/04/06 10:44:30;;;;;;;10.65;6.60;;;;;;;4.41;53.74;99195.25;115925;1200;102840;-83
2021/04/06 10:46:58;;;;;;;9.33;6.70;;;;;;;4.44;51.36;99205.72;115644;1199;102407;-82
2021/04/06 10:49:25;;;;;;;10.77;6.43;;;;;;;4.45;51.70;99202.20;115949;1199;101220;-83
2021/04/06 10:51:57;;;;;;;9.47;6.13;;;;;;;4.53;50.71;99200.27;115727;1199;101804;-83
2021/04/06 10:54:24;;;;;;;9.23;6.35;;;;;;;4.71;52.01;99199.02;115552;1199;103017;-84
2021/04/06 10:57:06;;;;;;;13.03;7.23;;;;;;;4.69;52.23;99206.97;115925;1199;103099;-81
2021/04/06 10:59:47;;;;;;;10.55;6.73;;;;;;;4.63;51.96;99203.59;115521;1202;103216;-80
2021/04/06 11:02:20;;;;;;;7.95;5.80;;;;;;;4.73;52.44;99205.14;115445;1203;103014;-82
2021/04/06 11:04:47;;;;;;;15.25;7.50;;;;;;;4.97;51.77;99201.08;115516;1202;102235;-85
2021/04/06 11:07:14;;;;;;;6.43;5.67;;;;;;;5.27;51.72;99201.25;115717;1202;101993;-83
2021/04/06 11:09:46;;;;;;;22.28;7.43;;;;;;;5.46;50.11;99193.73;115564;1202;101381;-82
2021/04/06 11:12:15;;;;;;;10.80;5.75;;;;;;;5.50;48.83;99203.34;116034;1200;101304;-82
2021/04/06 11:14:44;;;;;;;7.87;5.93;;;;;;;5.43;48.64;99200.89;115972;1200;101740;-82
2021/04/06 11:17:15;;;;;;;9.05;5.70;;;;;;;5.53;46.58;99200.63;115783;1202;102443;-82
2021/04/06 11:19:46;;;;;;;9.10;6.30;;;;;;;5.63;47.46;99203.03;115901;1200;102900;-82
2021/04/06 11:22:16;;;;;;;8.98;5.75;;;;;;;5.72;45.75;99191.34;115929;1202;102388;-81
2021/04/06 11:24:47;;;;;;;8.23;5.50;;;;;;;5.78;45.89;99201.77;115918;1202;103200;-81
2021/04/06 11:27:14;;;;;;;15.37;7.10;;;;;;;5.85;45.86;99192.75;115689;1202;103012;-81
2021/04/06 11:29:42;;;;;;;9.65;6.30;;;;;;;5.86;45.55;99194.49;115726;1200;103207;-81
2021/04/06 11:32:12;;;;;;;8.80;5.80;;;;;;;5.86;45.77;99198.02;115761;1200;103162;-83
2021/04/06 11:34:40;;;;;;;9.10;6.10;;;;;;;5.79;46.18;99201.71;115838;1202;102212;-83
2021/04/06 11:37:08;;;;;;;5.57;5.03;;;;;;;5.92;46.21;99204.02;115864;1199;101896;-83
2021/04/06 11:39:39;;;;;;;13.00;5.43;;;;;;;5.83;43.80;99198.08;115880;1199;102995;-83
2021/04/06 11:42:08;;;;;;;6.57;5.63;;;;;;;5.71;44.41;99208.98;115828;1200;103052;-84